Latest Coastal Weather Observations for Gabo Island

IDV60701

Issued at 1:21 pm EDT Saturday 20 December 2014 (issued every 10 minutes, with the page automatically refreshed every 10 minutes)

About coastal observations | Map of coastal stations | Coastal observations for VIC | Marine services | Other Formats
Station Details ID: 084016 Name: GABO ISLAND LIGHTHOUSE Lat: -37.57 Lon: 149.92 Height: 15.2 m
Data from the previous 72 hours. | See also: Recent months at Gabo Island
Date/Time
EDT
Temp

°C
Wind Pressure Rain
since 9am
mm
Weather Cloud Vis
km
Sea
Height
m
Swell
Dir
 
Speed
knots
Gust
knots
hPa Trend Height
m
Period
s
Dir
20/01:00pm 17.8 SSW 21 24 1017.3 - 0.0 - - - - - - -
20/12:30pm 17.9 SW 22 25 1017.6 - 0.0 - - - - - - -
20/12:00pm 17.7 SSW 18 21 1017.7 - 0.0 - - - - - - -
20/11:30am 18.0 SSW 15 17 1017.7 - 0.0 - - - - - - -
20/11:00am 19.8 WSW 11 14 1017.8 - 0.0 - - - - - - -
20/10:30am 19.2 W 11 15 1017.6 - 0.0 - - - - - - -
20/10:00am 18.7 W 12 14 1017.7 - 0.0 - - - - - - -
20/09:30am 17.8 W 11 14 1017.9 - 0.0 - - - - - - -
20/09:00am 17.2 W 12 15 1018.1 - 0.0 Fine Mostly cloudy 40 1 0.8 10 S
20/08:30am 16.2 W 12 15 1017.9 - 0.0 - - - - - - -
20/08:00am 15.6 W 12 15 1017.6 - 0.0 - - - - - - -
20/07:30am 14.3 WNW 11 16 1017.6 - 0.0 - - - - - - -
20/07:00am 13.9 WNW 11 17 1017.2 - 0.0 - - - - - - -
20/06:30am 13.5 WNW 12 16 1017.0 - 0.0 - - - - - - -
20/06:00am 13.5 WNW 9 12 1016.9 - 0.0 - - - - - - -
20/05:30am 13.8 WNW 8 11 1016.8 - 0.0 - - - - - - -
20/05:00am 13.7 WNW 9 12 1016.8 - 0.0 - - - - - - -
20/04:30am 14.0 WNW 9 13 1016.7 - 0.0 - - - - - - -
20/04:00am 13.9 WNW 10 13 1016.6 - 0.0 - - - - - - -
20/03:30am 13.7 WNW 9 13 1016.8 - 0.0 - - - - - - -
20/03:00am 13.8 WNW 10 13 1017.0 - 0.0 Fine Cloudy 30 1 0.5 10 S
20/02:30am 13.4 WNW 10 14 1017.0 - 0.0 - - - - - - -
20/02:00am 13.6 WNW 10 14 1017.2 - 0.0 - - - - - - -
20/01:30am 13.5 WNW 9 13 1017.4 - 0.0 - - - - - - -
20/01:00am 13.7 WNW 10 14 1017.6 - 0.0 - - - - - - -
20/12:30am 14.5 W 12 15 1017.7 - 0.0 - - - - - - -
20/12:00am 14.8 W 12 16 1017.9 - 0.0 - - - - - - -
 
Date/Time
EDT
Temp

°C
Wind Pressure Rain
since 9am
mm
Weather Cloud Vis
km
Sea
Height
m
Swell
Dir
 
Speed
knots
Gust
knots
hPa Trend Height
m
Period
s
Dir
19/11:30pm 15.4 W 13 17 1018.0 - 0.0 - - - - - - -
19/11:00pm 15.6 W 15 24 1018.1 - 0.0 - - - - - - -
19/10:58pm 15.6 W 15 24 1018.1 - 0.0 - - - - - - -
19/10:30pm 16.3 SW 20 24 1018.0 - 0.0 - - - - - - -
19/10:00pm 16.2 SW 22 25 1017.9 - 0.0 - - - - - - -
19/09:30pm 16.4 SW 22 26 1017.8 - 0.0 - - - - - - -
19/09:00pm 16.4 SW 24 29 1017.5 - 0.0 - - - 2 1.5 8 SW
19/08:30pm 16.5 SW 23 28 1017.3 - 0.0 - - - - - - -
19/08:00pm 16.7 SW 24 28 1017.2 - 0.0 - - - - - - -
19/07:30pm 16.7 SW 24 29 1016.8 - 0.0 - - - - - - -
19/07:00pm 16.8 SW 26 31 1016.4 - 0.0 - - - - - - -
19/06:30pm 17.0 SW 26 32 1016.0 - 0.0 - - - - - - -
19/06:00pm 16.9 SW 26 30 1015.5 - 0.0 - - - - - - -
19/05:30pm 17.1 SW 27 31 1015.2 - 0.0 - - - - - - -
19/05:00pm 17.0 SW 27 31 1015.1 - 0.0 - - - - - - -
19/04:30pm 17.4 SW 30 34 1015.0 - 0.0 - - - - - - -
19/04:00pm 17.4 SW 29 34 1014.9 - 0.0 - - - - - - -
19/03:30pm 17.9 SW 29 34 1014.8 - 0.0 - - - - - - -
19/03:00pm 17.7 SW 29 34 1014.4 - 0.0 Distant precip. Partly cloudy 25 2 1.5 8 SW
19/02:30pm 17.3 SW 27 34 1014.3 - 0.0 - - - - - - -
19/02:00pm 17.7 SW 27 34 1014.3 - 0.0 - - - - - - -
19/01:30pm 17.0 SW 32 39 1014.1 - 0.0 - - - - - - -
19/01:00pm 17.1 SW 33 38 1014.0 - 0.0 - - - - - - -
19/12:30pm 17.5 SW 29 35 1013.8 - 0.0 - - - - - - -
19/12:00pm 17.2 SW 28 33 1013.5 - 0.0 - - - - - - -
19/11:30am 16.9 SW 24 31 1013.4 - 0.0 - - - - - - -
19/11:13am 15.1 SW 26 38 1013.6 - 0.0 - - - - - - -
19/11:00am 15.6 SW 36 42 1013.3 - 0.0 - - - - - - -
19/10:57am 16.0 SW 35 40 1013.2 - 0.0 - - - - - - -
19/10:55am 16.8 WSW 22 37 1013.3 - 0.0 - - - - - - -
19/10:33am 16.6 WSW 22 25 1013.4 - 0.0 - - - - - - -
19/10:30am 16.4 SW 17 21 1013.4 - 0.0 - - - - - - -
19/10:19am 15.2 SW 21 31 1013.4 - 0.0 - - - - - - -
19/10:00am 17.2 WSW 22 29 1013.3 - 0.0 - - - - - - -
19/09:30am 16.5 WSW 22 29 1013.1 - 0.0 - - - - - - -
19/09:00am 16.1 W 21 26 1013.1 - 11.0 Distant precip. Partly cloudy 25 1 1.5 8 S
19/08:30am 14.7 W 20 25 1012.8 - 11.0 - - - - - - -
19/08:00am 14.5 W 17 21 1012.6 - 11.0 - - - - - - -
19/07:30am 14.2 W 21 26 1012.4 - 11.0 - - - - - - -
19/07:00am 13.7 W 20 23 1011.9 - 11.0 - - - - - - -
19/06:30am 14.1 W 19 24 1011.4 - 11.0 - - - - - - -
19/06:00am 14.2 WSW 21 27 1011.0 - 11.0 - - - - - - -
19/05:30am 14.2 WSW 22 27 1010.6 - 11.0 - - - - - - -
19/05:00am 14.0 W 22 27 1010.2 - 11.0 - - - - - - -
19/04:30am 14.0 W 22 27 1009.8 - 11.0 - - - - - - -
19/04:00am 14.5 W 24 31 1009.7 - 11.0 - - - - - - -
19/03:30am 14.7 WSW 23 30 1009.5 - 11.0 - - - - - - -
19/03:00am 14.7 W 21 27 1009.3 - 11.0 Lightning Partly cloudy 30 1 0.5 11 S
19/02:30am 14.8 WSW 20 25 1009.5 - 11.0 - - - - - - -
19/02:00am 14.4 W 19 25 1009.5 - 11.0 - - - - - - -
19/01:30am 14.5 WSW 19 24 1009.6 - 11.0 - - - - - - -
19/01:00am 14.7 WSW 19 26 1009.7 - 11.0 - - - - - - -
19/12:30am 14.8 WSW 19 25 1009.8 - 11.0 - - - - - - -
19/12:00am 15.3 SW 26 32 1009.5 - 11.0 - - - - - - -
 
Date/Time
EDT
Temp

°C
Wind Pressure Rain
since 9am
mm
Weather Cloud Vis
km
Sea
Height
m
Swell
Dir
 
Speed
knots
Gust
knots
hPa Trend Height
m
Period
s
Dir
18/11:30pm 15.7 SW 28 33 1009.7 - 11.0 - - - - - - -
18/11:00pm 15.1 WSW 31 43 1009.3 - 11.0 - - - - - - -
18/10:30pm 16.3 SW 35 46 1007.8 - 11.0 - - - - - - -
18/10:25pm 16.8 SSW 33 46 1008.0 - 11.0 - - - - - - -
18/10:00pm 17.2 SW 32 39 1009.0 - 11.0 - - - - - - -
18/09:30pm 17.4 SSW 31 37 1007.7 - 11.0 - - - - - - -
18/09:22pm 17.8 SSW 30 36 1007.6 - 11.0 - - - - - - -
18/09:18pm 18.2 SW 17 28 1007.8 - 11.0 - - - - - - -
18/09:00pm 17.3 SSW 9 11 1007.4 - 11.0 Thunderstorm Mostly cloudy 15 1 0.5 11 S
18/08:30pm 18.6 S 7 13 1006.8 - 10.2 - - - - - - -
18/08:00pm 18.0 NE 9 11 1005.9 - 8.4 - - - - - - -
18/07:30pm 18.4 NNE 12 17 1005.5 - 8.4 - - - - - - -
18/07:00pm 19.3 NE 15 17 1005.0 - 8.4 - - - - - - -
18/06:30pm 18.5 NE 15 18 1004.9 - 8.4 - - - - - - -
18/06:00pm 18.5 NE 17 19 1004.4 - 8.4 - - - - - - -
18/05:30pm 18.8 NNE 16 21 1004.5 - 8.4 - - - - - - -
18/05:00pm 19.0 NE 14 21 1004.2 - 3.2 - - - - - - -
18/04:59pm 19.0 NE 14 21 1004.2 - 3.2 - - - - - - -
18/04:48pm 19.1 N 20 25 1004.8 - 0.8 - - - - - - -
18/04:30pm 19.2 NE 19 21 1003.7 - 0.0 - - - - - - -
18/04:00pm 20.3 NE 18 20 1004.2 - 0.0 - - - - - - -
18/03:30pm 21.0 NE 18 22 1004.4 - 0.0 - - - - - - -
18/03:00pm 21.9 NE 19 22 1004.3 - 0.0 Haze Mostly clear 20 1 1.0 10 S
18/02:30pm 21.3 NE 18 22 1004.5 - 0.0 - - - - - - -
18/02:00pm 21.2 NE 19 21 1004.5 - 0.0 - - - - - - -
18/01:30pm 20.7 NE 21 24 1004.9 - 0.0 - - - - - - -
18/01:00pm 21.9 NNE 22 26 1005.2 - 0.0 - - - - - - -
18/12:30pm 21.3 NNE 22 25 1005.5 - 0.0 - - - - - - -
18/12:00pm 21.6 NNE 20 24 1005.9 - 0.0 - - - - - - -
18/11:30am 21.7 NNE 20 26 1006.2 - 0.0 - - - - - - -
18/11:00am 20.8 NNE 24 30 1006.3 - 0.0 - - - - - - -
18/10:30am 20.5 NNE 25 31 1006.3 - 0.0 - - - - - - -
18/10:00am 20.3 NNE 26 32 1006.4 - 0.0 - - - - - - -
18/09:30am 20.5 N 23 30 1006.8 - 0.0 - - - - - - -
18/09:00am 19.5 N 25 31 1007.2 - 0.0 Fine Mostly clear 30 2 1.0 10 S
18/08:30am 19.0 N 21 28 1007.5 - 0.0 - - - - - - -
18/08:00am 18.2 NNE 12 20 1008.1 - 0.0 - - - - - - -
18/07:30am 17.1 NNE 12 16 1008.3 - 0.0 - - - - - - -
18/07:00am 16.7 NNE 13 17 1008.2 - 0.0 - - - - - - -
18/06:30am 16.1 NNE 15 18 1008.1 - 0.0 - - - - - - -
18/06:00am 15.7 NNE 15 18 1008.1 - 0.0 - - - - - - -
18/05:30am 15.5 NNE 13 16 1008.3 - 0.0 - - - - - - -
18/05:00am 15.2 NNE 15 18 1008.1 - 0.0 - - - - - - -
18/04:30am 15.6 NNE 19 22 1007.8 - 0.0 - - - - - - -
18/04:00am 15.3 NNE 13 17 1008.1 - 0.0 - - - - - - -
18/03:30am 15.3 N 10 13 1008.5 - 0.0 - - - - - - -
18/03:00am 15.3 NNE 8 9 1009.0 - 0.0 Fine Mostly cloudy 40 <0.5 0.5 10 S
18/02:30am 15.4 NNE 6 7 1009.1 - 0.0 - - - - - - -
18/02:00am 15.5 NNE 5 6 1009.4 - 0.0 - - - - - - -
18/01:30am 15.3 N 4 5 1009.9 - 0.0 - - - - - - -
18/01:00am 15.3 N 5 5 1010.3 - 0.0 - - - - - - -
18/12:30am 15.3 N 5 6 1010.7 - 0.0 - - - - - - -
18/12:00am 15.6 N 4 5 1010.9 - 0.0 - - - - - - -
 
Date/Time
EDT
Temp

°C
Wind Pressure Rain
since 9am
mm
Weather Cloud Vis
km
Sea
Height
m
Swell
Dir
 
Speed
knots
Gust
knots
hPa Trend Height
m
Period
s
Dir
17/11:30pm 15.6 N 3 4 1011.1 - 0.0 - - - - - - -
17/11:00pm 16.0 CALM 0 0 1011.2 - 0.0 - - - - - - -
17/10:30pm 16.4 SSW 3 3 1011.2 - 0.0 - - - - - - -
17/10:00pm 16.5 S 4 5 1011.1 - 0.0 - - - - - - -
17/09:30pm 16.5 S 5 6 1011.1 - 0.0 - - - - - - -
17/09:00pm 16.6 S 5 6 1010.8 - 0.0 Fine Mostly cloudy 40 1 0.8 10 S
17/08:30pm 16.7 S 7 8 1010.5 - 0.0 - - - - - - -
17/08:00pm 16.8 S 7 8 1010.3 - 0.0 - - - - - - -
17/07:30pm 16.7 S 10 11 1009.6 - 0.0 - - - - - - -
17/07:00pm 16.8 S 12 14 1009.3 - 0.0 - - - - - - -
17/06:30pm 17.0 S 13 15 1009.2 - 0.0 - - - - - - -
17/06:00pm 18.1 S 15 17 1009.0 - 0.0 - - - - - - -
17/05:30pm 18.2 S 17 21 1008.7 - 0.0 - - - - - - -
17/05:00pm 18.0 SSW 18 21 1008.5 - 0.0 - - - - - - -
17/04:30pm 17.6 SSW 20 24 1008.5 - 0.0 - - - - - - -
17/04:00pm 17.4 SSW 20 25 1008.2 - 0.0 - - - - - - -
17/03:30pm 17.3 SSW 24 28 1008.3 - 0.0 - - - - - - -
17/03:00pm 17.2 SSW 26 29 1008.2 - 0.0 Fine Mostly clear 40 2 1.5 10 E
17/02:30pm 17.1 SSW 26 29 1008.2 - 0.0 - - - - - - -
17/02:00pm 17.0 SSW 25 29 1008.1 - 0.0 - - - - - - -
17/01:30pm 16.9 SSW 27 31 1008.1 - 0.0 - - - - - - -

Other Formats:

Comma delimited format used in spreadsheet applications
http://www.bom.gov.au/fwo/IDV60701/IDV60701.94933.axf

JavaScript Object Notation format (JSON) in row-major order
http://www.bom.gov.au/fwo/IDV60701/IDV60701.94933.json